sensor_id;sensor_type;location;lat;lon;timestamp;temperature;humidity
5276;DHT22;2661;50.786;12.728;2023-01-15T00:02:11;8.80;99.90
5276;DHT22;2661;50.786;12.728;2023-01-15T00:04:38;8.80;99.90
5276;DHT22;2661;50.786;12.728;2023-01-15T00:07:05;8.80;99.90
5276;DHT22;2661;50.786;12.728;2023-01-15T00:09:31;8.80;99.90
5276;DHT22;2661;50.786;12.728;2023-01-15T00:11:58;8.80;99.90
5276;DHT22;2661;50.786;12.728;2023-01-15T00:14:25;8.90;99.90
5276;DHT22;2661;50.786;12.728;2023-01-15T00:16:51;8.90;99.90
5276;DHT22;2661;50.786;12.728;2023-01-15T00:19:18;8.90;99.90
5276;DHT22;2661;50.786;12.728;2023-01-15T00:21:45;8.90;99.90
5276;DHT22;2661;50.786;12.728;2023-01-15T00:24:11;8.90;99.90
5276;DHT22;2661;50.786;12.728;2023-01-15T00:26:57;8.90;99.90
5276;DHT22;2661;50.786;12.728;2023-01-15T00:29:42;8.80;99.90
5276;DHT22;2661;50.786;12.728;2023-01-15T00:32:09;8.90;99.90
5276;DHT22;2661;50.786;12.728;2023-01-15T00:34:35;8.90;99.90
5276;DHT22;2661;50.786;12.728;2023-01-15T00:37:02;8.90;99.90
5276;DHT22;2661;50.786;12.728;2023-01-15T00:39:29;8.90;99.90
5276;DHT22;2661;50.786;12.728;2023-01-15T00:41:55;9.00;99.90
5276;DHT22;2661;50.786;12.728;2023-01-15T00:44:22;9.00;99.90
5276;DHT22;2661;50.786;12.728;2023-01-15T00:46:48;9.00;99.90
5276;DHT22;2661;50.786;12.728;2023-01-15T00:49:15;8.90;99.90
5276;DHT22;2661;50.786;12.728;2023-01-15T00:51:42;8.90;99.90
5276;DHT22;2661;50.786;12.728;2023-01-15T00:54:08;9.00;99.90
5276;DHT22;2661;50.786;12.728;2023-01-15T00:56:35;9.00;99.90
5276;DHT22;2661;50.786;12.728;2023-01-15T00:59:02;9.00;99.90
5276;DHT22;2661;50.786;12.728;2023-01-15T01:01:29;8.90;99.90
5276;DHT22;2661;50.786;12.728;2023-01-15T01:03:56;9.00;99.90
5276;DHT22;2661;50.786;12.728;2023-01-15T01:06:24;9.00;99.90
5276;DHT22;2661;50.786;12.728;2023-01-15T01:08:50;9.00;99.90
5276;DHT22;2661;50.786;12.728;2023-01-15T01:11:18;9.00;99.90
5276;DHT22;2661;50.786;12.728;2023-01-15T01:13:45;9.00;99.90
5276;DHT22;2661;50.786;12.728;2023-01-15T01:18:48;9.10;99.90
5276;DHT22;2661;50.786;12.728;2023-01-15T01:21:15;9.10;99.90
5276;DHT22;2661;50.786;12.728;2023-01-15T01:23:41;9.10;99.90
5276;DHT22;2661;50.786;12.728;2023-01-15T01:26:08;9.20;99.90
5276;DHT22;2661;50.786;12.728;2023-01-15T01:28:35;9.20;99.90
5276;DHT22;2661;50.786;12.728;2023-01-15T01:31:05;9.10;99.90
5276;DHT22;2661;50.786;12.728;2023-01-15T01:33:32;9.20;99.90
5276;DHT22;2661;50.786;12.728;2023-01-15T01:35:58;9.30;99.90
5276;DHT22;2661;50.786;12.728;2023-01-15T01:38:25;9.20;99.90
5276;DHT22;2661;50.786;12.728;2023-01-15T01:40:52;9.30;99.90
5276;DHT22;2661;50.786;12.728;2023-01-15T01:43:19;9.30;99.90
5276;DHT22;2661;50.786;12.728;2023-01-15T01:45:46;9.30;99.90
5276;DHT22;2661;50.786;12.728;2023-01-15T01:48:13;9.30;99.90
5276;DHT22;2661;50.786;12.728;2023-01-15T01:50:40;9.30;99.90
5276;DHT22;2661;50.786;12.728;2023-01-15T01:53:07;9.40;99.90
5276;DHT22;2661;50.786;12.728;2023-01-15T01:55:35;9.40;99.90
5276;DHT22;2661;50.786;12.728;2023-01-15T01:58:02;9.40;99.90
5276;DHT22;2661;50.786;12.728;2023-01-15T02:00:30;9.40;99.90
5276;DHT22;2661;50.786;12.728;2023-01-15T02:02:58;9.40;99.90
5276;DHT22;2661;50.786;12.728;2023-01-15T02:05:29;9.50;99.90
5276;DHT22;2661;50.786;12.728;2023-01-15T02:07:56;9.50;99.90
5276;DHT22;2661;50.786;12.728;2023-01-15T02:10:23;9.50;99.90
5276;DHT22;2661;50.786;12.728;2023-01-15T02:15:44;9.50;99.90
5276;DHT22;2661;50.786;12.728;2023-01-15T02:20:42;9.50;99.90
5276;DHT22;2661;50.786;12.728;2023-01-15T02:28:13;9.50;99.90
5276;DHT22;2661;50.786;12.728;2023-01-15T02:30:43;9.60;99.90
5276;DHT22;2661;50.786;12.728;2023-01-15T02:33:12;9.60;99.90
5276;DHT22;2661;50.786;12.728;2023-01-15T02:35:42;9.60;99.90
5276;DHT22;2661;50.786;12.728;2023-01-15T02:38:10;9.60;99.90
5276;DHT22;2661;50.786;12.728;2023-01-15T02:40:38;9.60;99.90
5276;DHT22;2661;50.786;12.728;2023-01-15T02:43:06;9.60;99.90
5276;DHT22;2661;50.786;12.728;2023-01-15T02:45:34;9.60;99.90
5276;DHT22;2661;50.786;12.728;2023-01-15T02:48:07;9.70;99.90
5276;DHT22;2661;50.786;12.728;2023-01-15T02:50:35;9.70;99.90
5276;DHT22;2661;50.786;12.728;2023-01-15T02:53:04;9.70;99.90
5276;DHT22;2661;50.786;12.728;2023-01-15T02:55:37;9.80;99.90
5276;DHT22;2661;50.786;12.728;2023-01-15T02:58:05;9.70;99.90
5276;DHT22;2661;50.786;12.728;2023-01-15T03:00:34;9.70;99.90
5276;DHT22;2661;50.786;12.728;2023-01-15T03:03:07;9.70;99.90
5276;DHT22;2661;50.786;12.728;2023-01-15T03:05:38;9.70;99.90
5276;DHT22;2661;50.786;12.728;2023-01-15T03:08:06;9.80;99.90
5276;DHT22;2661;50.786;12.728;2023-01-15T03:10:38;9.70;99.90
5276;DHT22;2661;50.786;12.728;2023-01-15T03:13:07;9.80;99.90
5276;DHT22;2661;50.786;12.728;2023-01-15T03:15:42;9.70;99.90
5276;DHT22;2661;50.786;12.728;2023-01-15T03:18:30;9.70;99.90
5276;DHT22;2661;50.786;12.728;2023-01-15T03:20:59;9.70;99.90
5276;DHT22;2661;50.786;12.728;2023-01-15T03:23:27;9.80;99.90
5276;DHT22;2661;50.786;12.728;2023-01-15T03:25:55;9.80;99.90
5276;DHT22;2661;50.786;12.728;2023-01-15T03:28:25;9.80;99.90
5276;DHT22;2661;50.786;12.728;2023-01-15T03:30:53;9.80;99.90
5276;DHT22;2661;50.786;12.728;2023-01-15T03:33:19;9.80;99.90
5276;DHT22;2661;50.786;12.728;2023-01-15T03:35:51;9.80;99.90
5276;DHT22;2661;50.786;12.728;2023-01-15T03:38:24;9.80;99.90
5276;DHT22;2661;50.786;12.728;2023-01-15T03:43:29;9.80;99.90
5276;DHT22;2661;50.786;12.728;2023-01-15T03:46:10;9.80;99.90
5276;DHT22;2661;50.786;12.728;2023-01-15T03:48:41;9.80;99.90
5276;DHT22;2661;50.786;12.728;2023-01-15T03:51:17;9.80;99.90
5276;DHT22;2661;50.786;12.728;2023-01-15T03:53:47;9.80;99.90
5276;DHT22;2661;50.786;12.728;2023-01-15T03:56:17;9.80;99.90
5276;DHT22;2661;50.786;12.728;2023-01-15T04:01:12;9.80;99.90
5276;DHT22;2661;50.786;12.728;2023-01-15T04:03:40;9.80;99.90
5276;DHT22;2661;50.786;12.728;2023-01-15T04:06:07;9.80;99.90
5276;DHT22;2661;50.786;12.728;2023-01-15T04:08:36;9.80;99.90
5276;DHT22;2661;50.786;12.728;2023-01-15T04:11:03;9.80;99.90
5276;DHT22;2661;50.786;12.728;2023-01-15T04:13:30;9.80;99.90
5276;DHT22;2661;50.786;12.728;2023-01-15T04:15:57;9.70;99.90
5276;DHT22;2661;50.786;12.728;2023-01-15T04:18:23;9.80;99.90
5276;DHT22;2661;50.786;12.728;2023-01-15T04:20:50;9.70;99.90
5276;DHT22;2661;50.786;12.728;2023-01-15T04:23:17;9.70;99.90
5276;DHT22;2661;50.786;12.728;2023-01-15T04:25:43;9.70;99.90
5276;DHT22;2661;50.786;12.728;2023-01-15T04:28:10;9.70;99.90
5276;DHT22;2661;50.786;12.728;2023-01-15T04:30:38;9.80;99.90
5276;DHT22;2661;50.786;12.728;2023-01-15T04:33:04;9.80;99.90
5276;DHT22;2661;50.786;12.728;2023-01-15T04:35:31;9.80;99.90
5276;DHT22;2661;50.786;12.728;2023-01-15T04:37:59;9.90;99.90
5276;DHT22;2661;50.786;12.728;2023-01-15T04:40:26;9.80;99.90
5276;DHT22;2661;50.786;12.728;2023-01-15T04:43:11;9.80;99.90
5276;DHT22;2661;50.786;12.728;2023-01-15T04:45:57;9.80;99.90
5276;DHT22;2661;50.786;12.728;2023-01-15T04:48:24;9.90;99.90
5276;DHT22;2661;50.786;12.728;2023-01-15T04:50:51;9.90;99.90
5276;DHT22;2661;50.786;12.728;2023-01-15T04:53:18;9.80;99.90
5276;DHT22;2661;50.786;12.728;2023-01-15T04:55:44;9.90;99.90
5276;DHT22;2661;50.786;12.728;2023-01-15T04:58:11;9.90;99.90
5276;DHT22;2661;50.786;12.728;2023-01-15T05:00:37;9.90;99.90
5276;DHT22;2661;50.786;12.728;2023-01-15T05:03:05;9.80;99.90
5276;DHT22;2661;50.786;12.728;2023-01-15T05:05:31;9.90;99.90
5276;DHT22;2661;50.786;12.728;2023-01-15T05:07:58;9.90;99.90
5276;DHT22;2661;50.786;12.728;2023-01-15T05:10:24;9.90;99.90
5276;DHT22;2661;50.786;12.728;2023-01-15T05:12:51;9.90;99.90
5276;DHT22;2661;50.786;12.728;2023-01-15T05:15:18;9.90;99.90
5276;DHT22;2661;50.786;12.728;2023-01-15T05:17:44;10.00;99.90
5276;DHT22;2661;50.786;12.728;2023-01-15T05:20:11;9.90;99.90
5276;DHT22;2661;50.786;12.728;2023-01-15T05:22:37;9.90;99.90
5276;DHT22;2661;50.786;12.728;2023-01-15T05:25:04;9.90;99.90
5276;DHT22;2661;50.786;12.728;2023-01-15T05:27:31;9.90;99.90
5276;DHT22;2661;50.786;12.728;2023-01-15T05:29:57;10.00;99.90
5276;DHT22;2661;50.786;12.728;2023-01-15T05:32:24;9.90;99.90
5276;DHT22;2661;50.786;12.728;2023-01-15T05:34:50;10.00;99.90
5276;DHT22;2661;50.786;12.728;2023-01-15T05:37:17;9.90;99.90
5276;DHT22;2661;50.786;12.728;2023-01-15T05:39:43;9.90;99.90
5276;DHT22;2661;50.786;12.728;2023-01-15T05:42:10;9.90;99.90
5276;DHT22;2661;50.786;12.728;2023-01-15T05:44:36;9.90;99.90
5276;DHT22;2661;50.786;12.728;2023-01-15T05:47:03;9.90;99.90
5276;DHT22;2661;50.786;12.728;2023-01-15T05:49:32;9.90;99.90
5276;DHT22;2661;50.786;12.728;2023-01-15T05:51:59;9.60;1.00
5276;DHT22;2661;50.786;12.728;2023-01-15T05:54:27;9.00;1.00
5276;DHT22;2661;50.786;12.728;2023-01-15T05:56:54;8.60;1.00
5276;DHT22;2661;50.786;12.728;2023-01-15T05:59:22;8.40;99.90
5276;DHT22;2661;50.786;12.728;2023-01-15T06:01:49;8.30;1.00
5276;DHT22;2661;50.786;12.728;2023-01-15T06:04:16;8.20;1.00
5276;DHT22;2661;50.786;12.728;2023-01-15T06:06:47;8.00;1.00
5276;DHT22;2661;50.786;12.728;2023-01-15T06:09:13;8.00;1.00
5276;DHT22;2661;50.786;12.728;2023-01-15T06:11:40;7.80;1.00
5276;DHT22;2661;50.786;12.728;2023-01-15T06:14:06;7.80;1.00
5276;DHT22;2661;50.786;12.728;2023-01-15T06:16:33;7.80;1.00
5276;DHT22;2661;50.786;12.728;2023-01-15T06:19:00;7.70;1.00
5276;DHT22;2661;50.786;12.728;2023-01-15T06:21:27;7.70;1.00
5276;DHT22;2661;50.786;12.728;2023-01-15T06:23:53;7.60;1.00
5276;DHT22;2661;50.786;12.728;2023-01-15T06:26:20;7.60;1.00
5276;DHT22;2661;50.786;12.728;2023-01-15T06:28:47;7.50;1.00
5276;DHT22;2661;50.786;12.728;2023-01-15T06:31:15;7.50;1.00
5276;DHT22;2661;50.786;12.728;2023-01-15T06:33:42;7.40;1.00
5276;DHT22;2661;50.786;12.728;2023-01-15T06:36:13;7.40;1.00
5276;DHT22;2661;50.786;12.728;2023-01-15T06:38:40;7.40;1.00
5276;DHT22;2661;50.786;12.728;2023-01-15T06:41:11;7.40;1.00
5276;DHT22;2661;50.786;12.728;2023-01-15T06:43:56;7.30;1.00
5276;DHT22;2661;50.786;12.728;2023-01-15T06:46:45;7.30;1.00
5276;DHT22;2661;50.786;12.728;2023-01-15T06:49:30;7.30;1.00
5276;DHT22;2661;50.786;12.728;2023-01-15T06:51:57;7.30;1.00
5276;DHT22;2661;50.786;12.728;2023-01-15T06:54:24;7.30;1.00
5276;DHT22;2661;50.786;12.728;2023-01-15T06:56:50;7.30;1.00
5276;DHT22;2661;50.786;12.728;2023-01-15T06:59:17;7.30;1.00
5276;DHT22;2661;50.786;12.728;2023-01-15T07:01:44;7.30;1.00
5276;DHT22;2661;50.786;12.728;2023-01-15T07:04:11;7.30;99.90
5276;DHT22;2661;50.786;12.728;2023-01-15T07:06:38;7.40;99.90
5276;DHT22;2661;50.786;12.728;2023-01-15T07:09:04;7.30;99.90
5276;DHT22;2661;50.786;12.728;2023-01-15T07:11:31;7.20;99.90
5276;DHT22;2661;50.786;12.728;2023-01-15T07:13:57;7.20;99.90
5276;DHT22;2661;50.786;12.728;2023-01-15T07:16:33;7.20;99.90
5276;DHT22;2661;50.786;12.728;2023-01-15T07:19:00;7.10;99.90
5276;DHT22;2661;50.786;12.728;2023-01-15T07:21:27;7.20;99.90
5276;DHT22;2661;50.786;12.728;2023-01-15T07:23:57;7.30;99.90
5276;DHT22;2661;50.786;12.728;2023-01-15T07:26:24;7.20;56.10
5276;DHT22;2661;50.786;12.728;2023-01-15T07:28:50;7.20;1.00
5276;DHT22;2661;50.786;12.728;2023-01-15T07:31:17;7.10;1.00
5276;DHT22;2661;50.786;12.728;2023-01-15T07:33:43;7.10;1.00
5276;DHT22;2661;50.786;12.728;2023-01-15T07:36:10;7.00;1.00
5276;DHT22;2661;50.786;12.728;2023-01-15T07:38:36;6.80;99.90
5276;DHT22;2661;50.786;12.728;2023-01-15T07:41:03;6.70;99.90
5276;DHT22;2661;50.786;12.728;2023-01-15T07:43:48;6.50;1.00
5276;DHT22;2661;50.786;12.728;2023-01-15T07:46:33;6.30;1.00
5276;DHT22;2661;50.786;12.728;2023-01-15T07:49:18;6.30;4.70
5276;DHT22;2661;50.786;12.728;2023-01-15T07:52:03;6.10;27.60
5276;DHT22;2661;50.786;12.728;2023-01-15T07:54:30;6.10;99.90
5276;DHT22;2661;50.786;12.728;2023-01-15T07:56:56;6.10;99.90
5276;DHT22;2661;50.786;12.728;2023-01-15T07:59:24;6.10;1.00
5276;DHT22;2661;50.786;12.728;2023-01-15T08:01:51;6.10;99.90
5276;DHT22;2661;50.786;12.728;2023-01-15T08:04:17;6.00;99.90
5276;DHT22;2661;50.786;12.728;2023-01-15T08:06:44;6.10;99.90
5276;DHT22;2661;50.786;12.728;2023-01-15T08:09:11;6.20;99.90
5276;DHT22;2661;50.786;12.728;2023-01-15T08:11:37;6.10;99.90
5276;DHT22;2661;50.786;12.728;2023-01-15T08:14:23;6.10;99.90
5276;DHT22;2661;50.786;12.728;2023-01-15T08:17:08;6.20;99.90
5276;DHT22;2661;50.786;12.728;2023-01-15T08:19:34;6.20;99.90
5276;DHT22;2661;50.786;12.728;2023-01-15T08:22:01;6.10;99.90
5276;DHT22;2661;50.786;12.728;2023-01-15T08:24:27;6.10;99.90
5276;DHT22;2661;50.786;12.728;2023-01-15T08:26:54;6.10;99.90
5276;DHT22;2661;50.786;12.728;2023-01-15T08:29:21;6.20;99.90
5276;DHT22;2661;50.786;12.728;2023-01-15T08:31:47;6.20;59.70
5276;DHT22;2661;50.786;12.728;2023-01-15T08:34:14;6.20;30.30
5276;DHT22;2661;50.786;12.728;2023-01-15T08:36:41;6.20;1.00
5276;DHT22;2661;50.786;12.728;2023-01-15T08:39:07;6.20;1.00
5276;DHT22;2661;50.786;12.728;2023-01-15T08:41:34;6.20;99.90
5276;DHT22;2661;50.786;12.728;2023-01-15T08:44:00;6.20;1.00
5276;DHT22;2661;50.786;12.728;2023-01-15T08:46:27;6.20;99.90
5276;DHT22;2661;50.786;12.728;2023-01-15T08:48:54;6.10;99.90
5276;DHT22;2661;50.786;12.728;2023-01-15T08:51:20;6.00;1.00
5276;DHT22;2661;50.786;12.728;2023-01-15T08:53:47;6.00;99.90
5276;DHT22;2661;50.786;12.728;2023-01-15T08:56:14;6.10;1.00
5276;DHT22;2661;50.786;12.728;2023-01-15T08:58:41;6.00;1.00
5276;DHT22;2661;50.786;12.728;2023-01-15T09:01:08;6.10;99.90
5276;DHT22;2661;50.786;12.728;2023-01-15T09:03:35;6.10;1.00
5276;DHT22;2661;50.786;12.728;2023-01-15T09:06:03;6.10;1.00
5276;DHT22;2661;50.786;12.728;2023-01-15T09:08:31;6.10;1.00
5276;DHT22;2661;50.786;12.728;2023-01-15T09:10:58;6.10;1.00
5276;DHT22;2661;50.786;12.728;2023-01-15T09:13:25;6.10;99.90
5276;DHT22;2661;50.786;12.728;2023-01-15T09:15:52;6.10;99.90
5276;DHT22;2661;50.786;12.728;2023-01-15T09:18:18;6.20;72.30
5276;DHT22;2661;50.786;12.728;2023-01-15T09:20:46;6.20;99.90
5276;DHT22;2661;50.786;12.728;2023-01-15T09:23:12;6.10;99.90
5276;DHT22;2661;50.786;12.728;2023-01-15T09:25:39;6.10;99.90
5276;DHT22;2661;50.786;12.728;2023-01-15T09:28:06;6.10;99.90
5276;DHT22;2661;50.786;12.728;2023-01-15T09:30:33;6.10;28.90
5276;DHT22;2661;50.786;12.728;2023-01-15T09:33:00;6.10;1.00
5276;DHT22;2661;50.786;12.728;2023-01-15T09:35:30;6.20;1.00
5276;DHT22;2661;50.786;12.728;2023-01-15T09:37:57;6.10;1.00
5276;DHT22;2661;50.786;12.728;2023-01-15T09:43:14;6.10;32.50
5276;DHT22;2661;50.786;12.728;2023-01-15T09:45:51;6.20;1.00
5276;DHT22;2661;50.786;12.728;2023-01-15T09:48:27;6.20;1.00
5276;DHT22;2661;50.786;12.728;2023-01-15T09:56:02;6.20;99.90
5276;DHT22;2661;50.786;12.728;2023-01-15T09:58:34;6.20;1.00
5276;DHT22;2661;50.786;12.728;2023-01-15T10:01:01;6.20;1.00
5276;DHT22;2661;50.786;12.728;2023-01-15T10:03:37;6.20;1.00
5276;DHT22;2661;50.786;12.728;2023-01-15T10:08:41;6.30;99.90
5276;DHT22;2661;50.786;12.728;2023-01-15T10:13:46;6.30;99.90
5276;DHT22;2661;50.786;12.728;2023-01-15T10:16:19;6.30;99.90
5276;DHT22;2661;50.786;12.728;2023-01-15T10:18:46;6.30;99.90
5276;DHT22;2661;50.786;12.728;2023-01-15T10:21:15;6.30;99.90
5276;DHT22;2661;50.786;12.728;2023-01-15T10:26:35;6.30;99.90
5276;DHT22;2661;50.786;12.728;2023-01-15T10:29:15;6.20;99.90
5276;DHT22;2661;50.786;12.728;2023-01-15T10:31:53;6.00;99.90
5276;DHT22;2661;50.786;12.728;2023-01-15T10:37:07;6.00;99.90
5276;DHT22;2661;50.786;12.728;2023-01-15T10:40:04;6.10;99.90
5276;DHT22;2661;50.786;12.728;2023-01-15T10:45:15;6.10;99.90
5276;DHT22;2661;50.786;12.728;2023-01-15T10:47:45;6.20;99.90
5276;DHT22;2661;50.786;12.728;2023-01-15T10:50:18;6.20;99.90
5276;DHT22;2661;50.786;12.728;2023-01-15T10:52:49;6.20;99.90
5276;DHT22;2661;50.786;12.728;2023-01-15T10:55:25;6.20;99.90
5276;DHT22;2661;50.786;12.728;2023-01-15T10:58:04;6.30;99.90
5276;DHT22;2661;50.786;12.728;2023-01-15T11:00:36;6.40;99.90
5276;DHT22;2661;50.786;12.728;2023-01-15T11:03:05;6.40;99.90
5276;DHT22;2661;50.786;12.728;2023-01-15T11:05:37;6.40;99.90
5276;DHT22;2661;50.786;12.728;2023-01-15T11:08:05;6.30;99.90
5276;DHT22;2661;50.786;12.728;2023-01-15T11:10:53;6.30;99.90
5276;DHT22;2661;50.786;12.728;2023-01-15T11:13:21;6.30;99.90
5276;DHT22;2661;50.786;12.728;2023-01-15T11:16:20;6.40;99.90
5276;DHT22;2661;50.786;12.728;2023-01-15T11:19:19;6.50;99.90
5276;DHT22;2661;50.786;12.728;2023-01-15T11:22:16;6.40;99.90
5276;DHT22;2661;50.786;12.728;2023-01-15T11:24:47;6.40;99.90
5276;DHT22;2661;50.786;12.728;2023-01-15T11:27:15;6.40;99.90
5276;DHT22;2661;50.786;12.728;2023-01-15T11:29:42;6.50;99.90
5276;DHT22;2661;50.786;12.728;2023-01-15T11:32:25;6.50;99.90
5276;DHT22;2661;50.786;12.728;2023-01-15T11:34:54;6.50;99.90
5276;DHT22;2661;50.786;12.728;2023-01-15T11:37:21;6.50;99.90
5276;DHT22;2661;50.786;12.728;2023-01-15T11:39:51;6.40;99.90
5276;DHT22;2661;50.786;12.728;2023-01-15T11:42:19;6.40;99.90
5276;DHT22;2661;50.786;12.728;2023-01-15T11:45:18;6.30;99.90
5276;DHT22;2661;50.786;12.728;2023-01-15T11:48:18;6.30;99.90
5276;DHT22;2661;50.786;12.728;2023-01-15T11:53:43;6.30;99.90
5276;DHT22;2661;50.786;12.728;2023-01-15T11:56:17;6.30;99.90
5276;DHT22;2661;50.786;12.728;2023-01-15T11:58:52;6.30;99.90
5276;DHT22;2661;50.786;12.728;2023-01-15T12:01:20;6.30;99.90
5276;DHT22;2661;50.786;12.728;2023-01-15T12:03:47;6.30;99.90
5276;DHT22;2661;50.786;12.728;2023-01-15T12:06:14;6.30;99.90
5276;DHT22;2661;50.786;12.728;2023-01-15T12:08:42;6.20;99.90
5276;DHT22;2661;50.786;12.728;2023-01-15T12:14:12;6.30;99.90
5276;DHT22;2661;50.786;12.728;2023-01-15T12:16:44;6.30;99.90
5276;DHT22;2661;50.786;12.728;2023-01-15T12:19:17;6.40;99.90
5276;DHT22;2661;50.786;12.728;2023-01-15T12:24:36;6.40;99.90
5276;DHT22;2661;50.786;12.728;2023-01-15T12:27:18;6.40;99.90
5276;DHT22;2661;50.786;12.728;2023-01-15T12:29:57;6.40;99.90
5276;DHT22;2661;50.786;12.728;2023-01-15T12:32:28;6.50;99.90
5276;DHT22;2661;50.786;12.728;2023-01-15T12:37:27;6.50;99.90
5276;DHT22;2661;50.786;12.728;2023-01-15T12:39:56;6.60;99.90
5276;DHT22;2661;50.786;12.728;2023-01-15T12:42:24;6.60;99.90
5276;DHT22;2661;50.786;12.728;2023-01-15T12:45:11;6.60;99.90
5276;DHT22;2661;50.786;12.728;2023-01-15T12:53:41;6.60;99.90
5276;DHT22;2661;50.786;12.728;2023-01-15T12:56:11;6.50;99.90
5276;DHT22;2661;50.786;12.728;2023-01-15T13:03:44;6.40;99.90
5276;DHT22;2661;50.786;12.728;2023-01-15T13:06:11;6.40;99.90
5276;DHT22;2661;50.786;12.728;2023-01-15T13:11:10;6.40;99.90
5276;DHT22;2661;50.786;12.728;2023-01-15T13:13:41;6.40;99.90
5276;DHT22;2661;50.786;12.728;2023-01-15T13:16:12;6.30;99.90
5276;DHT22;2661;50.786;12.728;2023-01-15T13:21:28;6.30;99.90
5276;DHT22;2661;50.786;12.728;2023-01-15T13:29:30;6.20;99.90
5276;DHT22;2661;50.786;12.728;2023-01-15T13:34:45;6.20;99.90
5276;DHT22;2661;50.786;12.728;2023-01-15T13:39:53;6.20;99.90
5276;DHT22;2661;50.786;12.728;2023-01-15T13:42:21;6.20;99.90
5276;DHT22;2661;50.786;12.728;2023-01-15T13:45:02;6.20;99.90
5276;DHT22;2661;50.786;12.728;2023-01-15T13:47:30;6.10;99.90
5276;DHT22;2661;50.786;12.728;2023-01-15T13:49:58;6.10;99.90
5276;DHT22;2661;50.786;12.728;2023-01-15T13:52:33;6.10;99.90
5276;DHT22;2661;50.786;12.728;2023-01-15T13:55:07;6.10;99.90
5276;DHT22;2661;50.786;12.728;2023-01-15T13:57:35;6.20;99.90
5276;DHT22;2661;50.786;12.728;2023-01-15T14:00:25;6.10;99.90
5276;DHT22;2661;50.786;12.728;2023-01-15T14:02:52;6.20;99.90
5276;DHT22;2661;50.786;12.728;2023-01-15T14:05:33;6.20;99.90
5276;DHT22;2661;50.786;12.728;2023-01-15T14:08:01;6.20;99.90
5276;DHT22;2661;50.786;12.728;2023-01-15T14:10:32;6.20;99.90
5276;DHT22;2661;50.786;12.728;2023-01-15T14:18:25;6.00;99.90
5276;DHT22;2661;50.786;12.728;2023-01-15T14:20:57;6.00;99.90
5276;DHT22;2661;50.786;12.728;2023-01-15T14:23:33;5.90;99.90
5276;DHT22;2661;50.786;12.728;2023-01-15T14:26:19;5.90;99.90
5276;DHT22;2661;50.786;12.728;2023-01-15T14:31:26;5.90;99.90
5276;DHT22;2661;50.786;12.728;2023-01-15T14:34:03;5.80;99.90
5276;DHT22;2661;50.786;12.728;2023-01-15T14:36:37;5.80;99.90
5276;DHT22;2661;50.786;12.728;2023-01-15T14:39:06;5.80;99.90
5276;DHT22;2661;50.786;12.728;2023-01-15T14:41:43;5.80;99.90
5276;DHT22;2661;50.786;12.728;2023-01-15T14:44:29;5.70;99.90
5276;DHT22;2661;50.786;12.728;2023-01-15T14:46:57;5.70;99.90
5276;DHT22;2661;50.786;12.728;2023-01-15T14:49:26;5.70;99.90
5276;DHT22;2661;50.786;12.728;2023-01-15T14:51:53;5.60;99.90
5276;DHT22;2661;50.786;12.728;2023-01-15T14:54:19;5.50;99.90
5276;DHT22;2661;50.786;12.728;2023-01-15T14:56:50;5.50;99.90
5276;DHT22;2661;50.786;12.728;2023-01-15T15:01:52;5.50;99.90
5276;DHT22;2661;50.786;12.728;2023-01-15T15:04:24;5.50;99.90
5276;DHT22;2661;50.786;12.728;2023-01-15T15:06:54;5.40;99.90
5276;DHT22;2661;50.786;12.728;2023-01-15T15:09:32;5.40;99.90
5276;DHT22;2661;50.786;12.728;2023-01-15T15:12:13;5.40;99.90
5276;DHT22;2661;50.786;12.728;2023-01-15T15:14:51;5.20;99.90
5276;DHT22;2661;50.786;12.728;2023-01-15T15:17:36;5.20;99.90
5276;DHT22;2661;50.786;12.728;2023-01-15T15:20:17;5.10;99.90
5276;DHT22;2661;50.786;12.728;2023-01-15T15:22:45;5.20;99.90
5276;DHT22;2661;50.786;12.728;2023-01-15T15:25:16;5.10;99.90
5276;DHT22;2661;50.786;12.728;2023-01-15T15:27:45;5.10;99.90
5276;DHT22;2661;50.786;12.728;2023-01-15T15:30:11;5.00;99.90
5276;DHT22;2661;50.786;12.728;2023-01-15T15:32:41;5.00;99.90
5276;DHT22;2661;50.786;12.728;2023-01-15T15:35:17;5.00;99.90
5276;DHT22;2661;50.786;12.728;2023-01-15T15:37:46;4.90;99.90
5276;DHT22;2661;50.786;12.728;2023-01-15T15:40:15;4.80;99.90
5276;DHT22;2661;50.786;12.728;2023-01-15T15:42:49;4.80;99.90
5276;DHT22;2661;50.786;12.728;2023-01-15T15:45:36;4.80;99.90
5276;DHT22;2661;50.786;12.728;2023-01-15T15:48:27;4.70;99.90
5276;DHT22;2661;50.786;12.728;2023-01-15T15:51:32;4.70;99.90
5276;DHT22;2661;50.786;12.728;2023-01-15T15:54:02;4.70;99.90
5276;DHT22;2661;50.786;12.728;2023-01-15T15:56:30;4.70;99.90
5276;DHT22;2661;50.786;12.728;2023-01-15T15:58:57;4.60;99.90
5276;DHT22;2661;50.786;12.728;2023-01-15T16:01:24;4.60;99.90
5276;DHT22;2661;50.786;12.728;2023-01-15T16:03:51;4.60;99.90
5276;DHT22;2661;50.786;12.728;2023-01-15T16:06:19;4.70;99.90
5276;DHT22;2661;50.786;12.728;2023-01-15T16:08:56;4.70;99.90
5276;DHT22;2661;50.786;12.728;2023-01-15T16:11:30;4.60;99.90
5276;DHT22;2661;50.786;12.728;2023-01-15T16:13:58;4.70;99.90
5276;DHT22;2661;50.786;12.728;2023-01-15T16:16:26;4.70;99.90
5276;DHT22;2661;50.786;12.728;2023-01-15T16:18:57;4.70;99.90
5276;DHT22;2661;50.786;12.728;2023-01-15T16:21:36;4.70;99.90
5276;DHT22;2661;50.786;12.728;2023-01-15T16:24:06;4.70;99.90
5276;DHT22;2661;50.786;12.728;2023-01-15T16:29:00;4.60;99.90
5276;DHT22;2661;50.786;12.728;2023-01-15T16:31:31;4.50;99.90
5276;DHT22;2661;50.786;12.728;2023-01-15T16:33:58;4.50;99.90
5276;DHT22;2661;50.786;12.728;2023-01-15T16:36:25;4.50;99.90
5276;DHT22;2661;50.786;12.728;2023-01-15T16:38:52;4.50;99.90
5276;DHT22;2661;50.786;12.728;2023-01-15T16:41:20;4.50;99.90
5276;DHT22;2661;50.786;12.728;2023-01-15T16:43:52;4.60;99.90
5276;DHT22;2661;50.786;12.728;2023-01-15T16:46:20;4.60;99.90
5276;DHT22;2661;50.786;12.728;2023-01-15T16:48:47;4.60;99.90
5276;DHT22;2661;50.786;12.728;2023-01-15T16:51:31;4.80;99.90
5276;DHT22;2661;50.786;12.728;2023-01-15T16:54:02;4.80;99.90
5276;DHT22;2661;50.786;12.728;2023-01-15T16:59:03;4.70;99.90
5276;DHT22;2661;50.786;12.728;2023-01-15T17:04:00;4.60;99.90
5276;DHT22;2661;50.786;12.728;2023-01-15T17:06:26;4.60;99.90
5276;DHT22;2661;50.786;12.728;2023-01-15T17:08:53;4.60;99.90
5276;DHT22;2661;50.786;12.728;2023-01-15T17:11:23;4.50;99.90
5276;DHT22;2661;50.786;12.728;2023-01-15T17:13:50;4.50;99.90
5276;DHT22;2661;50.786;12.728;2023-01-15T17:16:20;4.40;99.90
5276;DHT22;2661;50.786;12.728;2023-01-15T17:18:48;4.40;99.90
5276;DHT22;2661;50.786;12.728;2023-01-15T17:21:21;4.40;99.90
5276;DHT22;2661;50.786;12.728;2023-01-15T17:23:54;4.40;99.90
5276;DHT22;2661;50.786;12.728;2023-01-15T17:26:21;4.30;99.90
5276;DHT22;2661;50.786;12.728;2023-01-15T17:28:48;4.30;99.90
5276;DHT22;2661;50.786;12.728;2023-01-15T17:31:21;4.20;99.90
5276;DHT22;2661;50.786;12.728;2023-01-15T17:33:49;4.20;99.90
5276;DHT22;2661;50.786;12.728;2023-01-15T17:36:19;4.30;99.90
5276;DHT22;2661;50.786;12.728;2023-01-15T17:38:45;4.20;99.90
5276;DHT22;2661;50.786;12.728;2023-01-15T17:41:12;4.30;99.90
5276;DHT22;2661;50.786;12.728;2023-01-15T17:43:39;4.50;99.90
5276;DHT22;2661;50.786;12.728;2023-01-15T17:46:06;4.50;99.90
5276;DHT22;2661;50.786;12.728;2023-01-15T17:48:33;4.50;99.90
5276;DHT22;2661;50.786;12.728;2023-01-15T17:51:01;4.60;99.90
5276;DHT22;2661;50.786;12.728;2023-01-15T17:53:27;4.50;99.90
5276;DHT22;2661;50.786;12.728;2023-01-15T17:55:54;4.40;99.90
5276;DHT22;2661;50.786;12.728;2023-01-15T17:58:40;4.50;99.90
5276;DHT22;2661;50.786;12.728;2023-01-15T18:01:25;4.40;99.90